Weather observations for the past three days for
Ruston, Ruston Regional Airport
Imperial (Metric)
Date Time (cdt) Wind (mph) Vis. (mi.) Weather Sky Cond. Temperature (ºF) Relative Humidity Wind Chill (°F) Heat Index (°F) Pressure Precipitation (in)
Air Dwpt 6 hour altimeter (in) sea level (mb) 1 hr 3 hr 6 hr
Max. Min.
04 17:35 SW 9 10.00 Fair CLR 78.8 50.2 37% 79 29.86 0.0
04 17:15 Vrbl 7 10.00 Fair CLR 78.8 50.4 37% 79 29.86 0.0
04 16:55 S 16 10.00 Fair CLR 79.2 50.2 36% 79 29.87 0.0
04 16:35 S 12 G 18 10.00 Fair CLR 79 50.7 37% 79 29.88 0.0
04 16:15 S 10 G 20 10.00 Fair CLR 79.2 50.2 36% 79 29.88 0.0
04 15:55 SE 12 G 18 10.00 Fair CLR 79.3 50.2 36% 79 29.89 0.0
04 15:35 S 12 10.00 Fair CLR 78.6 49.6 36% 79 29.91 0.0
04 15:15 S 8 G 16 10.00 Fair CLR 78.4 49.5 36% 79 29.91 0.0
04 14:55 S 14 G 21 10.00 Fair CLR 78.3 49.1 36% 79 29.92 0.0
04 14:35 S 10 10.00 Fair CLR 78.1 49.3 36% 79 29.93 0.0
04 14:15 S 10 10.00 Fair CLR 78.8 50.9 38% 79 29.94 0.0
04 13:55 SW 10 10.00 Partly Cloudy FEW065 SCT370 77.2 50.2 39% 78 29.95 0.0
04 13:35 S 10 G 21 10.00 A Few Clouds FEW060 77.2 50 39% 78 29.96 0.0
04 13:15 S 13 G 20 10.00 A Few Clouds FEW060 76.5 49.3 38% 78 29.96 0.0
04 12:55 SW 6 G 18 10.00 Fair CLR 75.6 50.4 76.3 56.1 41% 78 29.97 0.0
04 12:35 S 15 G 21 10.00 Fair CLR 76.1 50.9 41% 78 29.97 0.0
04 12:15 S 18 G 23 10.00 A Few Clouds FEW050 75 50.7 43% 78 29.99 0.0
04 11:55 Vrbl 6 10.00 A Few Clouds FEW050 74.5 52.2 46% 30 0.0
04 11:35 SW 10 G 21 10.00 Fair CLR 73.6 51.6 46% 30 0.0
04 11:15 S 12 G 21 10.00 Fair CLR 72.7 51.6 48% 30.01 0.0
04 10:55 S 10 10.00 Fair CLR 71.8 52.7 51% 30.01 0.0
04 10:35 S 8 G 20 10.00 Fair CLR 71.1 52.9 53% 30.01 0.0
04 10:15 SW 8 10.00 Fair CLR 70.9 52.9 53% 30.01 0.0
04 09:55 Vrbl 6 10.00 Fair CLR 69.8 53.2 56% 30.02 0.0
04 09:35 Vrbl 7 10.00 Fair CLR 68.4 52.9 58% 30.02 0.0
04 09:15 SW 8 10.00 Fair CLR 66 52.2 61% 30.01 0.0
04 08:55 Vrbl 7 10.00 Fair CLR 64 52.3 66% 30.02 0.0
04 08:35 SW 7 10.00 Fair CLR 63.1 52.5 68% 30.02 0.0
04 08:15 SW 7 10.00 Fair CLR 61.9 52.2 71% 30.01 0.0
04 07:55 S 6 10.00 Fair CLR 59.9 52.2 76% 30.01 0.0
04 07:35 S 6 0.50 Fair with Haze CLR 58.1 52.2 81% 30.01 0.0
04 07:15 S 6 0.25 Fair with Haze CLR 56.8 51.8 83% 30 0.0
04 06:55 S 6 0.25 Fair with Haze CLR 56.1 52 61.2 55.8 86% 30 0.0
04 06:35 S 7 0.25 Fair with Haze CLR 55.9 52 87% 29.99 0.0
04 06:15 SW 5 0.25 Fog CLR 55.9 52.2 87% 30 0.0
04 05:55 SW 6 0.50 Fair with Haze CLR 57 51.8 83% 30 0.0
04 05:35 SW 6 0.50 Fair with Haze CLR 57.4 51.8 82% 30 0.0
04 05:15 S 6 0.50 Fair with Haze CLR 57.7 51.8 81% 30 0.0
04 04:55 Vrbl 7 0.50 Fair with Haze CLR 57.9 52 81% 30 0.0
04 04:35 S 8 0.50 Fair with Haze CLR 57.9 52 81% 29.99 0.0
04 04:15 S 6 0.50 Fair with Haze CLR 57.9 52.2 81% 29.99 0.0
04 03:55 S 7 0.50 Fair with Haze CLR 58.5 52.2 80% 29.99 0.0
04 03:35 S 7 0.50 Fair with Haze CLR 58.8 52 78% 30 0.0
04 03:15 SW 7 0.50 Light Drizzle CLR 59.2 52 77% 30 0.0
04 02:55 SW 6 0.75 Fair with Haze CLR 59.9 51.6 74% 30 0.0
04 02:35 Vrbl 7 0.50 Fair with Haze CLR 60.4 51.4 72% 30.01 0.0
04 02:15 S 8 0.50 Fair with Haze CLR 60.6 51.4 72% 30.01 0.0
04 01:55 S 8 0.50 Fair with Haze CLR 61 51.3 71% 30.02 0.0
04 01:35 S 9 0.75 Fair with Haze CLR 60.6 51.6 72% 30.02 0.0
04 01:15 S 7 0.75 Fair with Haze CLR 59.5 52.5 78% 30.03 0.0
04 00:55 S 7 0.75 Fair with Haze CLR 58.8 53.6 76.1 58.6 83% 30.03 0.0
04 00:35 S 6 0.75 Fair with Haze CLR 58.8 53.4 82% 30.03 0.0
04 00:15 S 5 0.75 Fair with Haze CLR 60.6 53.2 77% 30.03 0.0
03 23:55 SW 5 0.75 Fair with Haze CLR 60.3 52.9 77% 30.04 0.0
03 23:35 S 3 0.75 Fair with Haze CLR 59.5 54.7 84% 30.04 0.0
03 23:15 S 6 0.75 Fair with Haze CLR 60.4 54.1 80% 30.04 0.0
03 22:55 S 6 0.75 Fair with Haze CLR 61.3 54.7 79% 30.04 0.0
03 22:35 S 8 0.75 Fair with Haze CLR 62.4 54 74% 30.04 0.0
03 22:15 S 6 0.50 Fair with Haze CLR 63 54.5 74% 30.05 0.0
03 21:55 Calm 0.50 Fair with Haze CLR 61 55.8 83% 30.05 0.0
03 21:35 S 5 0.50 Fair with Haze CLR 61.2 56.5 85% 30.04 0.0
03 21:15 S 5 0.50 Fair with Haze CLR 61.9 56.5 83% 30.04 0.0
03 20:55 Calm 0.50 Fair with Haze CLR 62.6 55.9 79% 30.03 0.0
03 20:35 S 5 0.75 Fair with Haze CLR 63.7 55.6 75% 30.03 0.0
03 20:15 Calm 0.25 Fair with Haze CLR 64.9 55.8 72% 30.02 0.0
03 19:55 Calm 0.25 Fair with Haze CLR 67.8 54.9 63% 30.02 0.0
03 19:35 Calm 0.25 Fair with Haze CLR 70 55 59% 30.02 0.0
03 19:15 Calm 0.25 Fair with Haze CLR 74.7 50.5 43% 30.02 0.0
03 18:55 SW 3 10.00 Fair CLR 76.8 48.9 80.1 75.7 38% 78 30.02 0.0
03 18:35 Vrbl 5 10.00 A Few Clouds FEW070 77.4 47.3 35% 78 30.03 0.0
03 18:15 S 3 10.00 A Few Clouds FEW070 78.1 48.9 36% 79 30.03 0.0
03 17:55 Vrbl 3 10.00 A Few Clouds FEW070 78.6 48.6 35% 79 30.03 0.0
03 17:35 SW 8 10.00 Partly Cloudy SCT070 79 49.3 35% 79 30.03 0.0
03 17:15 Vrbl 7 10.00 Mostly Cloudy BKN075 79.2 48 34% 79 30.04 0.0
03 16:55 Vrbl 6 10.00 Fair CLR 79.2 49.8 36% 79 30.05 0.0
03 16:35 Calm 10.00 Fair CLR 80.1 50.5 36% 80 30.05 0.0
03 16:15 Vrbl 3 10.00 A Few Clouds FEW070 78.4 48.9 36% 79 30.06 0.0
03 15:55 W 7 10.00 Mostly Cloudy BKN075 77.7 48.7 36% 78 30.08 0.0
03 15:35 Calm 10.00 Mostly Cloudy BKN075 78.3 48.7 36% 79 30.08 0.0
03 15:15 Calm 10.00 Partly Cloudy SCT070 77 50.5 40% 78 30.09 0.0
03 14:55 Calm 10.00 Partly Cloudy SCT070 77.7 49.5 37% 78 30.1 0.0
03 14:35 Calm 10.00 Partly Cloudy SCT070 77.5 49.3 37% 78 30.11 0.0
03 13:55 Vrbl 7 6.00 A Few Clouds with Haze FEW070 76.3 48.2 37% 78 30.13 0.0
03 13:35 Vrbl 7 2.50 A Few Clouds with Haze FEW065 76.8 48.9 38% 78 30.14 0.0
03 13:15 Vrbl 5 6.00 Fair with Haze CLR 75.7 48.4 38% 78 30.14 0.0
03 12:55 Vrbl 7 3.00 A Few Clouds with Haze FEW065 76.1 49.5 76.1 47.5 39% 78 30.16 0.0
03 12:35 W 8 10.00 A Few Clouds FEW370 75.4 48 38% 78 30.16 0.0
03 12:15 Vrbl 7 5.00 Fair with Haze CLR 74.3 47.8 39% 30.17 0.0
03 11:55 Vrbl 6 2.00 Fair with Haze CLR 73.6 48 40% 30.18 0.0
03 11:35 Vrbl 6 10.00 Fair CLR 73.2 48.9 42% 30.18 0.0
03 11:15 Vrbl 3 10.00 Fair CLR 73 50.7 46% 30.18 0.0
03 10:55 Vrbl 5 3.00 Fair with Haze CLR 70.3 49.8 48% 30.18 0.0
03 10:35 Vrbl 7 10.00 Fair CLR 70.9 51.1 50% 30.19 0.0
03 10:15 Vrbl 7 3.00 Fair with Haze CLR 69.3 50 50% 30.18 0.0
03 09:55 Calm 4.00 A Few Clouds with Haze FEW080 67.1 52.3 59% 30.19 0.0
03 09:35 W 7 3.00 Partly Cloudy with Haze SCT080 65.1 52.5 64% 30.19 0.0
03 09:15 W 6 2.50 Mostly Cloudy with Haze BKN080 64.2 52.2 65% 30.19 0.0
03 08:55 Calm 2.00 Partly Cloudy with Haze SCT080 62.1 53.6 74% 30.19 0.0
03 08:35 Vrbl 5 2.50 Partly Cloudy with Haze SCT080 59.7 51.8 75% 30.18 0.0
03 08:15 SW 5 2.50 Mostly Cloudy with Haze BKN080 59.2 53.1 80% 30.18 0.0
03 07:55 Calm 3.00 Fog/Mist FEW075 56.7 55.9 97% 30.17 0.0
03 07:35 Calm 2.50 Fog/Mist CLR 51.8 51.8 100% 30.17 0.0
03 07:15 Calm 1.50 Fog/Mist CLR 49.8 49.8 100% 30.16 0.0
03 06:55 Calm 1.00 Fog/Mist CLR 46.6 46.6 50.5 46 100% 30.15 0.0
03 06:35 Calm 1.25 Fog/Mist CLR 46.2 46.2 100% 30.15 0.0
03 06:15 S 3 1.25 Fog/Mist CLR 46.2 46.2 100% 30.14 0.0
03 05:55 Calm 1.75 Fog/Mist CLR 46.2 46.2 100% 30.13 0.0
03 05:35 Calm 2.00 Fog/Mist CLR 46.6 46.6 100% 30.13 0.0
03 05:15 Calm 2.00 Fog/Mist CLR 46.6 46.6 100% 30.13 0.0
03 04:55 Calm 2.00 Fog/Mist CLR 46.9 46.9 100% 30.13 0.0
03 04:35 Calm 2.00 Fog/Mist CLR 47.1 47.1 100% 30.12 0.0
03 04:15 Calm 2.50 Fog/Mist CLR 47.5 47.5 100% 30.12 0.0
03 03:55 Calm 2.00 Fog/Mist CLR 47.7 47.7 100% 30.12 0.0
03 03:35 Calm 2.00 Fog/Mist CLR 47.8 47.8 100% 30.12 0.0
03 03:15 Calm 1.75 Fog/Mist CLR 48 48 100% 30.12 0.0
03 02:55 Calm 2.00 Fog/Mist CLR 48.4 48.4 100% 30.11 0.0
03 02:35 Calm 1.75 Fog/Mist CLR 48.6 48.6 100% 30.11 0.0
03 02:15 Calm 2.00 Fog/Mist CLR 49.3 49.3 100% 30.11 0.0
03 01:55 Calm 2.50 Fog/Mist CLR 50 50 100% 30.11 0.0
03 01:35 Calm 2.00 Fog/Mist CLR 49.3 49.3 100% 30.11 0.0
03 01:15 Calm 2.50 Fog/Mist CLR 50 50 100% 30.12 0.0
03 00:55 Calm 2.50 Fog/Mist CLR 50.5 50.5 69.6 49.8 100% 30.12 0.0
03 00:35 Calm 2.00 Fog/Mist CLR 50 50 100% 30.12 0.0
03 00:15 Calm 2.00 Fog/Mist CLR 50.5 50.5 100% 30.12 0.0
02 23:55 Calm 2.50 Fog/Mist CLR 50.4 50.4 100% 30.11 0.0
02 23:35 Calm 2.50 Fog/Mist CLR 50.9 50.9 100% 30.11 0.0
02 23:15 S 3 2.50 Fog/Mist CLR 51.6 51.6 100% 30.11 0.0
02 22:55 Calm 2.50 Fog/Mist CLR 51.4 51.4 100% 30.11 0.0
02 22:35 Calm 2.50 Fog/Mist CLR 52 51.8 99% 30.11 0.0
02 22:15 Calm 2.50 Fog/Mist CLR 53.1 51.6 95% 30.11 0.0
02 21:55 Calm 2.00 Fog/Mist CLR 53.2 52.5 97% 30.1 0.0
02 21:35 Calm 2.00 Fog/Mist CLR 53.8 52.9 97% 30.1 0.0
02 21:15 Calm 3.00 Fog/Mist CLR 54.7 52.9 94% 30.09 0.0
02 20:55 Calm 2.50 Fog/Mist CLR 55.9 53.6 92% 30.09 0.0
02 20:35 Calm 2.00 Fog/Mist CLR 57.6 53.6 87% 30.08 0.0
02 20:15 Calm 1.25 Fair with Haze CLR 59.4 51.8 76% 30.08 0.0
02 19:55 Calm 0.75 Fair with Haze CLR 61.9 52.5 72% 30.07 0.0
02 19:35 Calm 0.50 Fair with Haze CLR 64.9 52.2 63% 30.07 0.0
02 19:15 Calm 0.75 Fair with Haze CLR 66.9 52.2 59% 30.07 0.0
02 18:55 Calm 2.50 Fair with Haze CLR 70.7 44.1 73.4 69.6 38% 30.06 0.0
02 18:35 Vrbl 3 2.50 Fair with Haze CLR 71.1 44.4 38% 30.06 0.0
02 18:15 NE 5 5.00 Partly Cloudy with Haze SCT075 72.3 44.4 37% 30.06 0.0
02 17:55 N 8 6.00 Partly Cloudy with Haze SCT075 72.5 43.7 36% 30.06 0.0
02 17:35 NE 7 3.00 Mostly Cloudy with Haze BKN075 72.9 42.3 33% 30.05 0.0
02 17:15 N 9 3.00 Partly Cloudy with Haze SCT075 73.2 43 34% 30.06 0.0
02 16:55 Vrbl 3 3.00 A Few Clouds with Haze FEW080 71.2 43.3 37% 30.06 0.0
02 16:35 N 7 3.00 A Few Clouds with Haze FEW080 70.2 42.1 36% 30.06 0.0
02 16:15 Vrbl 7 5.00 Fair with Haze CLR 71.6 42.6 35% 30.07 0.0
02 15:55 N 8 4.00 Mostly Cloudy with Haze BKN075 72.9 43.5 35% 30.07 0.0
02 15:35 N 6 5.00 Mostly Cloudy with Haze BKN075 73 42.6 34% 30.08 0.0
02 15:15 N 9 6.00 Mostly Cloudy with Haze BKN070 71.6 42.1 35% 30.09 0.0
02 14:55 N 8 6.00 A Few Clouds with Haze FEW070 71.2 43.3 37% 30.1 0.0
02 14:35 N 9 4.00 Fair with Haze CLR 71.8 42.1 34% 30.11 0.0
02 14:15 NE 15 4.00 Fair with Haze CLR 70.9 40.8 34% 30.11 0.0
02 13:55 Vrbl 7 7.00 Fair CLR 70.5 41.2 35% 30.11 0.0
02 13:35 N 10 5.00 A Few Clouds with Haze FEW300 70.7 41.4 35% 30.12 0.0
02 13:15 Vrbl 7 3.00 A Few Clouds with Haze FEW340 70 39.2 33% 30.12 0.0
02 12:55 N 12 4.00 A Few Clouds with Haze FEW360 69.6 38.7 69.6 52 32% 30.13 0.0
02 12:35 N 8 4.00 Fair with Haze CLR 69.1 41 36% 30.13 0.0
02 12:15 N 8 5.00 Fair with Haze CLR 68 40.8 37% 30.14 0.0
02 11:55 Vrbl 6 5.00 Fair with Haze CLR 66.9 41.7 40% 30.14 0.0
02 11:35 N 7 4.00 Fair with Haze CLR 67.3 43 41% 30.14 0.0
02 11:15 Vrbl 6 4.00 Fair with Haze CLR 66.4 43.9 44% 30.14 0.0
02 10:55 N 13 5.00 Fair with Haze CLR 65.7 43.5 45% 30.14 0.0
02 10:35 NE 7 5.00 Fair with Haze CLR 64.8 44.8 49% 30.14 0.0
02 10:15 Vrbl 7 4.00 Fair with Haze CLR 64.4 47.8 55% 30.13 0.0
02 09:55 NE 6 5.00 Fair with Haze CLR 62.2 48.6 61% 30.13 0.0
02 09:35 N 8 5.00 Fair with Haze CLR 61.2 49.3 65% 30.13 0.0
02 09:15 N 8 5.00 Fair with Haze CLR 59.9 48.7 67% 30.13 0.0
02 08:55 N 6 5.00 Fair with Haze CLR 58.6 50.5 75% 30.12 0.0
02 08:35 N 6 5.00 Fair with Haze CLR 57.4 50.5 78% 30.11 0.0
02 08:15 N 6 5.00 Fair with Haze CLR 56.1 51.1 83% 30.1 0.0
02 07:55 N 6 5.00 Fog/Mist CLR 54.7 51.8 90% 30.1 0.0
02 07:35 N 5 3.00 Fog/Mist CLR 53.6 52.9 97% 30.09 0.0
02 07:15 Calm 2.50 Fog/Mist FEW150 52.3 52.3 100% 30.08 0.0
02 06:55 NW 3 2.50 Fog/Mist SCT130 OVC150 52.3 52.3 54.5 52.3 100% 30.06 0.0
02 06:35 Calm 3.00 Fog/Mist BKN130 OVC160 52.5 52.3 99% 30.05 0.0
02 06:15 N 3 2.50 Fog/Mist OVC130 52.5 52.5 100% 30.04 0.0
02 05:55 N 3 5.00 Fog/Mist OVC140 53.1 53.1 100% 30.03 0.0
02 05:35 N 5 5.00 Fog/Mist OVC140 53.2 53.2 100% 30.03 0.0
02 05:15 Vrbl 5 5.00 Fog/Mist OVC140 53.4 53.4 100% 30.02 0.0
02 04:55 N 3 5.00 Fog/Mist OVC130 53.8 53.8 100% 30.02 0.0
02 04:35 NW 5 5.00 Fog/Mist OVC130 53.6 53.6 100% 30.02 0.0
02 04:15 NW 3 4.00 Fog/Mist OVC140 53.4 53.4 100% 30.02 0.0
02 03:55 Calm 3.00 Fog/Mist OVC120 53.8 53.8 100% 30.02 0.0 0.01
02 03:35 Calm 3.00 Fog/Mist OVC120 53.8 53.8 100% 30.01 0.0
02 03:15 Calm 2.50 Fog/Mist OVC120 53.6 53.6 100% 30.01 0.0
02 02:55 Calm 4.00 Fog/Mist BKN130 53.4 53.4 100% 30 0.0
02 02:35 Calm 5.00 Fog/Mist FEW120 53.6 53.6 100% 30 0.0
02 02:15 Calm 5.00 Fog/Mist OVC120 54.1 54.1 100% 30.01 0.0
02 01:55 Calm 5.00 Fog/Mist OVC110 54.5 54.5 100% 30.02 0.0 0.01
02 01:35 Calm 4.00 Fog/Mist OVC110 54.5 54.5 100% 30.02 0.0 0.01
02 01:15 Calm 2.50 Fog/Mist BKN100 OVC130 54.5 54.5 100% 30.03 0.0
02 00:55 Calm 5.00 Fog/Mist BKN130 54.9 54.9 56.5 54.9 100% 30.03 0.0 0.02
02 00:35 Calm 5.00 Light Rain Fog/Mist FEW090 SCT130 55 55 100% 30.02 0.0
02 00:15 Calm 5.00 Fog/Mist SCT080 SCT095 55.2 55.2 100% 30.03 0.0
01 23:55 Calm 4.00 Light Rain Fog/Mist BKN080 OVC090 55.2 55.2 100% 30.03 0.0 0.01
01 23:35 Calm 4.00 Fog/Mist OVC090 55 55 100% 30.02 0.0 0.01
01 23:15 Calm 5.00 Fog/Mist BKN100 55 55 100% 30.03 0.0 0.01
01 22:55 Calm 3.00 Fog/Mist FEW090 55.2 55.2 100% 30.02 0.0 0.01
01 22:35 Calm 5.00 Light Rain Fog/Mist SCT090 55.4 55.4 100% 30.02 0.0 0.01
01 22:15 Calm 5.00 Fog/Mist FEW085 55.2 55.2 100% 30.03 0.0 0.01
01 21:55 Calm 2.50 Light Rain Fog/Mist FEW075 55.2 55.2 100% 30.01 0.0
01 21:35 Calm 5.00 Light Rain Fog/Mist SCT080 SCT100 55.2 55.2 100% 30 0.0
01 21:15 Calm 6.00 Light Rain Fog/Mist FEW070 55 55 100% 29.99 0.0
01 20:55 Calm 4.00 Fog/Mist CLR 55.4 55.4 100% 29.97 0.0
01 20:35 Calm 7.00 Fair CLR 55.6 55.6 100% 29.97 0.0
01 20:15 Calm 8.00 A Few Clouds FEW085 55.6 55.6 100% 29.97 0.0
01 19:55 NE 3 7.00 Light Rain SCT055 OVC085 55.2 55.2 100% 29.97 0.0
01 19:35 Calm 6.00 Fog/Mist OVC055 55.9 55.9 100% 29.99 0.0
01 19:15 Calm 5.00 Fog/Mist BKN055 OVC090 56.1 56.1 100% 29.99 0.0
01 18:55 Calm 6.00 Light Rain Fog/Mist FEW055 OVC090 56.3 55.2 57.2 55.2 96% 29.99 0.0 0.06
01 18:35 Calm 6.00 Fog/Mist SCT055 OVC090 57 55 93% 29.99 0.0
01 18:15 Calm 6.00 Fog/Mist BKN055 OVC085 56.8 55 94% 29.99 0.0
01 17:55 N 3 8.00 Overcast OVC055 56.8 55.9 97% 29.97 0.0
Date Time (cdt) Wind (mph) Vis. (mi.) Weather Sky Cond. Air Dwpt Max. Min. Relative Humidity Wind Chill (°F) Heat Index (°F) altimeter (in) sea level (mb) 1 hr 3 hr 6 hr
6 hour
Temperature (ºF) Pressure Precipitation (in)